sensor_id;sensor_type;location;lat;lon;timestamp;pressure;altitude;pressure_sealevel;temperature;humidity
25526;BME280;13424;48.424;11.258;2023-04-24T00:00:20;94685.41;;;14.06;82.69
25526;BME280;13424;48.424;11.258;2023-04-24T00:06:52;94694.22;;;14.11;82.45
25526;BME280;13424;48.424;11.258;2023-04-24T00:09:23;94691.41;;;13.97;82.59
25526;BME280;13424;48.424;11.258;2023-04-24T00:11:48;94688.38;;;14.04;82.18
25526;BME280;13424;48.424;11.258;2023-04-24T00:14:39;94691.28;;;13.84;83.05
25526;BME280;13424;48.424;11.258;2023-04-24T00:17:05;94695.09;;;14.07;82.45
25526;BME280;13424;48.424;11.258;2023-04-24T00:19:31;94697.63;;;13.93;82.26
25526;BME280;13424;48.424;11.258;2023-04-24T00:21:57;94698.44;;;13.88;82.78
25526;BME280;13424;48.424;11.258;2023-04-24T00:24:23;94692.28;;;13.88;82.57
25526;BME280;13424;48.424;11.258;2023-04-24T00:26:48;94697.66;;;13.88;82.62
25526;BME280;13424;48.424;11.258;2023-04-24T00:29:14;94693.47;;;13.77;82.68
25526;BME280;13424;48.424;11.258;2023-04-24T00:31:40;94694.56;;;13.76;82.94
25526;BME280;13424;48.424;11.258;2023-04-24T00:34:07;94692.28;;;13.88;82.21
25526;BME280;13424;48.424;11.258;2023-04-24T00:36:33;94697.25;;;13.76;83.14
25526;BME280;13424;48.424;11.258;2023-04-24T00:38:59;94695.31;;;13.42;83.67
25526;BME280;13424;48.424;11.258;2023-04-24T00:41:25;94696.00;;;13.58;82.95
25526;BME280;13424;48.424;11.258;2023-04-24T00:43:52;94699.34;;;13.45;83.58
25526;BME280;13424;48.424;11.258;2023-04-24T00:46:18;94697.41;;;13.50;83.59
25526;BME280;13424;48.424;11.258;2023-04-24T00:48:44;94695.44;;;13.27;83.64
25526;BME280;13424;48.424;11.258;2023-04-24T00:51:10;94690.63;;;13.19;84.30
25526;BME280;13424;48.424;11.258;2023-04-24T00:53:36;94692.16;;;13.35;83.87
25526;BME280;13424;48.424;11.258;2023-04-24T00:56:02;94700.88;;;13.11;85.02
25526;BME280;13424;48.424;11.258;2023-04-24T00:58:28;94693.13;;;13.49;82.59
25526;BME280;13424;48.424;11.258;2023-04-24T01:00:54;94694.09;;;13.63;82.52
25526;BME280;13424;48.424;11.258;2023-04-24T01:03:26;94684.06;;;13.45;82.84
25526;BME280;13424;48.424;11.258;2023-04-24T01:05:54;94690.28;;;13.75;81.85
25526;BME280;13424;48.424;11.258;2023-04-24T01:08:23;94690.00;;;13.76;81.95
25526;BME280;13424;48.424;11.258;2023-04-24T01:10:52;94681.69;;;13.73;81.53
25526;BME280;13424;48.424;11.258;2023-04-24T01:13:21;94677.41;;;13.77;81.47
25526;BME280;13424;48.424;11.258;2023-04-24T01:15:47;94679.28;;;13.76;81.19
25526;BME280;13424;48.424;11.258;2023-04-24T01:18:14;94677.41;;;13.77;80.93
25526;BME280;13424;48.424;11.258;2023-04-24T01:20:41;94678.00;;;13.68;81.10
25526;BME280;13424;48.424;11.258;2023-04-24T01:23:08;94678.59;;;13.60;81.36
25526;BME280;13424;48.424;11.258;2023-04-24T01:25:34;94678.47;;;13.76;81.17
25526;BME280;13424;48.424;11.258;2023-04-24T01:28:00;94681.81;;;13.57;81.12
25526;BME280;13424;48.424;11.258;2023-04-24T01:30:27;94680.88;;;13.43;82.30
25526;BME280;13424;48.424;11.258;2023-04-24T01:32:53;94681.13;;;13.41;82.40
25526;BME280;13424;48.424;11.258;2023-04-24T01:35:19;94674.75;;;13.72;81.04
25526;BME280;13424;48.424;11.258;2023-04-24T01:37:45;94678.59;;;13.60;81.36
25526;BME280;13424;48.424;11.258;2023-04-24T01:40:11;94667.03;;;13.65;81.07
25526;BME280;13424;48.424;11.258;2023-04-24T01:42:37;94663.63;;;13.54;81.02
25526;BME280;13424;48.424;11.258;2023-04-24T01:45:04;94661.97;;;13.63;80.30
25526;BME280;13424;48.424;11.258;2023-04-24T01:47:31;94656.13;;;13.56;80.99
25526;BME280;13424;48.424;11.258;2023-04-24T01:49:58;94650.16;;;13.64;80.67
25526;BME280;13424;48.424;11.258;2023-04-24T01:52:23;94658.47;;;13.63;80.72
25526;BME280;13424;48.424;11.258;2023-04-24T01:54:50;94666.22;;;13.64;80.26
25526;BME280;13424;48.424;11.258;2023-04-24T01:57:18;94662.06;;;13.48;81.18
25526;BME280;13424;48.424;11.258;2023-04-24T02:00:09;94662.59;;;13.50;80.44
25526;BME280;13424;48.424;11.258;2023-04-24T02:02:40;94654.97;;;13.67;79.92
25526;BME280;13424;48.424;11.258;2023-04-24T02:05:07;94649.84;;;13.71;79.92
25526;BME280;13424;48.424;11.258;2023-04-24T02:07:35;94651.56;;;13.57;80.48
25526;BME280;13424;48.424;11.258;2023-04-24T02:10:01;94657.69;;;13.62;80.12
25526;BME280;13424;48.424;11.258;2023-04-24T02:12:27;94655.63;;;13.49;80.22
25526;BME280;13424;48.424;11.258;2023-04-24T02:14:53;94657.19;;;13.55;80.46
25526;BME280;13424;48.424;11.258;2023-04-24T02:17:19;94658.47;;;13.29;81.11
25526;BME280;13424;48.424;11.258;2023-04-24T02:19:45;94653.63;;;13.36;81.08
25526;BME280;13424;48.424;11.258;2023-04-24T02:22:12;94649.88;;;13.32;81.04
25526;BME280;13424;48.424;11.258;2023-04-24T02:24:38;94660.66;;;13.17;81.51
25526;BME280;13424;48.424;11.258;2023-04-24T02:27:04;94658.56;;;13.13;81.68
25526;BME280;13424;48.424;11.258;2023-04-24T02:29:30;94659.09;;;13.10;82.39
25526;BME280;13424;48.424;11.258;2023-04-24T02:31:56;94655.31;;;13.22;81.12
25526;BME280;13424;48.424;11.258;2023-04-24T02:34:25;94651.31;;;13.14;81.21
25526;BME280;13424;48.424;11.258;2023-04-24T02:36:51;94657.69;;;13.18;81.26
25526;BME280;13424;48.424;11.258;2023-04-24T02:43:26;94661.25;;;13.08;81.66
25526;BME280;13424;48.424;11.258;2023-04-24T02:45:52;94655.69;;;13.00;82.16
25526;BME280;13424;48.424;11.258;2023-04-24T02:48:18;94661.16;;;12.79;82.68
25526;BME280;13424;48.424;11.258;2023-04-24T02:50:46;94661.34;;;12.93;82.64
25526;BME280;13424;48.424;11.258;2023-04-24T02:53:12;94662.44;;;12.87;82.92
25526;BME280;13424;48.424;11.258;2023-04-24T02:55:38;94669.94;;;12.85;82.83
25526;BME280;13424;48.424;11.258;2023-04-24T02:58:04;94659.81;;;12.82;83.11
25526;BME280;13424;48.424;11.258;2023-04-24T03:00:29;94662.28;;;12.73;83.29
25526;BME280;13424;48.424;11.258;2023-04-24T03:02:55;94664.97;;;12.68;82.92
25526;BME280;13424;48.424;11.258;2023-04-24T03:06:06;94657.19;;;12.72;83.38
25526;BME280;13424;48.424;11.258;2023-04-24T03:08:33;94665.22;;;12.67;83.67
25526;BME280;13424;48.424;11.258;2023-04-24T03:10:59;94663.16;;;12.53;84.29
25526;BME280;13424;48.424;11.258;2023-04-24T03:13:25;94659.38;;;12.65;84.34
25526;BME280;13424;48.424;11.258;2023-04-24T03:15:51;94663.56;;;12.81;83.46
25526;BME280;13424;48.424;11.258;2023-04-24T03:18:17;94658.00;;;12.67;83.76
25526;BME280;13424;48.424;11.258;2023-04-24T03:20:46;94656.13;;;12.73;83.69
25526;BME280;13424;48.424;11.258;2023-04-24T03:23:13;94652.94;;;12.61;84.02
25526;BME280;13424;48.424;11.258;2023-04-24T03:26:35;94656.13;;;12.68;83.66
25526;BME280;13424;48.424;11.258;2023-04-24T03:29:15;94658.81;;;12.68;84.19
25526;BME280;13424;48.424;11.258;2023-04-24T03:31:41;94653.44;;;12.73;83.84
25526;BME280;13424;48.424;11.258;2023-04-24T03:34:07;94650.91;;;12.97;82.57
25526;BME280;13424;48.424;11.258;2023-04-24T03:36:33;94656.13;;;12.73;83.51
25526;BME280;13424;48.424;11.258;2023-04-24T03:38:59;94650.78;;;12.73;84.07
25526;BME280;13424;48.424;11.258;2023-04-24T03:45:38;94658.75;;;12.78;83.47
25526;BME280;13424;48.424;11.258;2023-04-24T03:48:04;94664.75;;;12.54;84.49
25526;BME280;13424;48.424;11.258;2023-04-24T03:50:49;94658.22;;;12.81;83.46
25526;BME280;13424;48.424;11.258;2023-04-24T03:53:15;94652.38;;;12.74;83.58
25526;BME280;13424;48.424;11.258;2023-04-24T03:55:42;94660.91;;;12.76;83.61
25526;BME280;13424;48.424;11.258;2023-04-24T03:58:08;94654.31;;;13.02;82.41
25526;BME280;13424;48.424;11.258;2023-04-24T04:00:34;94648.47;;;12.95;82.41
25526;BME280;13424;48.424;11.258;2023-04-24T04:03:19;94654.47;;;12.82;82.60
25526;BME280;13424;48.424;11.258;2023-04-24T04:05:45;94647.97;;;12.93;82.24
25526;BME280;13424;48.424;11.258;2023-04-24T04:08:11;94648.97;;;12.58;83.33
25526;BME280;13424;48.424;11.258;2023-04-24T04:10:37;94646.88;;;12.99;82.23
25526;BME280;13424;48.424;11.258;2023-04-24T04:13:04;94650.34;;;13.00;81.85
25526;BME280;13424;48.424;11.258;2023-04-24T04:15:31;94655.38;;;13.06;81.77
25526;BME280;13424;48.424;11.258;2023-04-24T04:17:57;94650.09;;;12.96;82.04
25526;BME280;13424;48.424;11.258;2023-04-24T04:20:23;94654.91;;;12.99;81.87
25526;BME280;13424;48.424;11.258;2023-04-24T04:22:49;94653.00;;;13.00;81.54
25526;BME280;13424;48.424;11.258;2023-04-24T04:25:21;94656.63;;;12.80;83.01
25526;BME280;13424;48.424;11.258;2023-04-24T04:27:48;94657.59;;;12.94;81.93
25526;BME280;13424;48.424;11.258;2023-04-24T04:30:15;94660.75;;;13.06;81.86
25526;BME280;13424;48.424;11.258;2023-04-24T04:32:48;94658.66;;;12.98;82.01
25526;BME280;13424;48.424;11.258;2023-04-24T04:35:14;94667.50;;;12.94;82.21
25526;BME280;13424;48.424;11.258;2023-04-24T04:37:40;94659.47;;;12.94;82.02
25526;BME280;13424;48.424;11.258;2023-04-24T04:40:26;94672.50;;;12.56;83.49
25526;BME280;13424;48.424;11.258;2023-04-24T04:42:58;94672.13;;;12.83;82.58
25526;BME280;13424;48.424;11.258;2023-04-24T04:45:26;94665.22;;;12.72;82.18
25526;BME280;13424;48.424;11.258;2023-04-24T04:48:22;94672.81;;;12.49;83.73
25526;BME280;13424;48.424;11.258;2023-04-24T04:50:48;94670.59;;;12.62;83.65
25526;BME280;13424;48.424;11.258;2023-04-24T04:54:01;94676.00;;;12.51;83.64
25526;BME280;13424;48.424;11.258;2023-04-24T04:56:28;94667.91;;;12.67;83.30
25526;BME280;13424;48.424;11.258;2023-04-24T04:58:55;94669.63;;;12.42;83.68
25526;BME280;13424;48.424;11.258;2023-04-24T05:01:21;94667.13;;;12.66;82.65
25526;BME280;13424;48.424;11.258;2023-04-24T05:03:49;94671.50;;;12.42;83.31
25526;BME280;13424;48.424;11.258;2023-04-24T05:06:38;94674.41;;;12.50;83.04
25526;BME280;13424;48.424;11.258;2023-04-24T05:09:05;94684.31;;;12.40;84.07
25526;BME280;13424;48.424;11.258;2023-04-24T05:11:39;94677.38;;;12.39;83.85
25526;BME280;13424;48.424;11.258;2023-04-24T05:14:05;94684.03;;;12.51;83.38
25526;BME280;13424;48.424;11.258;2023-04-24T05:16:36;94687.72;;;12.66;83.38
25526;BME280;13424;48.424;11.258;2023-04-24T05:19:03;94691.56;;;12.34;84.25
25526;BME280;13424;48.424;11.258;2023-04-24T05:25:14;94691.63;;;12.89;82.52
25526;BME280;13424;48.424;11.258;2023-04-24T05:27:46;94688.88;;;12.99;82.68
25526;BME280;13424;48.424;11.258;2023-04-24T05:30:16;94692.97;;;12.86;82.29
25526;BME280;13424;48.424;11.258;2023-04-24T05:32:42;94698.31;;;12.86;82.21
25526;BME280;13424;48.424;11.258;2023-04-24T05:35:08;94700.53;;;13.28;81.12
25526;BME280;13424;48.424;11.258;2023-04-24T05:37:41;94692.06;;;13.50;80.61
25526;BME280;13424;48.424;11.258;2023-04-24T05:40:09;94700.66;;;13.47;80.03
25526;BME280;13424;48.424;11.258;2023-04-24T05:42:35;94701.75;;;13.41;80.24
25526;BME280;13424;48.424;11.258;2023-04-24T05:45:01;94699.09;;;13.41;80.86
25526;BME280;13424;48.424;11.258;2023-04-24T05:47:27;94701.03;;;13.30;80.35
25526;BME280;13424;48.424;11.258;2023-04-24T05:49:53;94704.38;;;13.07;80.71
25526;BME280;13424;48.424;11.258;2023-04-24T05:52:19;94698.44;;;13.10;81.00
25526;BME280;13424;48.424;11.258;2023-04-24T05:54:48;94706.69;;;13.19;80.36
25526;BME280;13424;48.424;11.258;2023-04-24T05:57:19;94707.19;;;13.36;79.72
25526;BME280;13424;48.424;11.258;2023-04-24T06:00:26;94711.41;;;13.42;79.82
25526;BME280;13424;48.424;11.258;2023-04-24T06:03:00;94708.78;;;13.37;80.31
25526;BME280;13424;48.424;11.258;2023-04-24T06:05:27;94715.97;;;13.41;80.38
25526;BME280;13424;48.424;11.258;2023-04-24T06:08:30;94714.94;;;13.37;80.33
25526;BME280;13424;48.424;11.258;2023-04-24T06:10:56;94721.72;;;13.14;80.43
25526;BME280;13424;48.424;11.258;2023-04-24T06:13:22;94710.69;;;13.26;80.32
25526;BME280;13424;48.424;11.258;2023-04-24T06:16:20;94719.53;;;13.27;80.24
25526;BME280;13424;48.424;11.258;2023-04-24T06:18:53;94718.91;;;13.40;80.48
25526;BME280;13424;48.424;11.258;2023-04-24T06:21:19;94716.53;;;13.38;79.56
25526;BME280;13424;48.424;11.258;2023-04-24T06:23:45;94735.06;;;13.30;79.81
25526;BME280;13424;48.424;11.258;2023-04-24T06:26:12;94730.19;;;13.37;80.45
25526;BME280;13424;48.424;11.258;2023-04-24T06:28:38;94725.84;;;13.46;80.12
25526;BME280;13424;48.424;11.258;2023-04-24T06:31:05;94734.31;;;13.58;79.23
25526;BME280;13424;48.424;11.258;2023-04-24T06:33:32;94726.72;;;13.76;78.25
25526;BME280;13424;48.424;11.258;2023-04-24T06:35:58;94730.44;;;13.40;79.33
25526;BME280;13424;48.424;11.258;2023-04-24T06:38:23;94734.06;;;13.94;78.37
25526;BME280;13424;48.424;11.258;2023-04-24T06:40:49;94733.69;;;14.06;77.83
25526;BME280;13424;48.424;11.258;2023-04-24T06:43:15;94738.97;;;14.16;77.46
25526;BME280;13424;48.424;11.258;2023-04-24T06:45:41;94732.47;;;13.59;78.01
25526;BME280;13424;48.424;11.258;2023-04-24T06:48:08;94740.44;;;13.64;77.92
25526;BME280;13424;48.424;11.258;2023-04-24T06:50:34;94737.19;;;13.72;77.12
25526;BME280;13424;48.424;11.258;2023-04-24T06:53:00;94735.56;;;13.71;77.60
25526;BME280;13424;48.424;11.258;2023-04-24T06:55:26;94739.78;;;14.16;77.38
25526;BME280;13424;48.424;11.258;2023-04-24T06:57:52;94736.78;;;13.89;76.37
25526;BME280;13424;48.424;11.258;2023-04-24T07:00:18;94736.03;;;13.44;78.31
25526;BME280;13424;48.424;11.258;2023-04-24T07:02:44;94741.91;;;13.85;77.37
25526;BME280;13424;48.424;11.258;2023-04-24T07:05:11;94747.22;;;14.19;76.41
25526;BME280;13424;48.424;11.258;2023-04-24T07:07:37;94749.78;;;13.72;77.22
25526;BME280;13424;48.424;11.258;2023-04-24T07:10:05;94754.91;;;14.02;77.08
25526;BME280;13424;48.424;11.258;2023-04-24T07:12:31;94744.03;;;14.17;76.28
25526;BME280;13424;48.424;11.258;2023-04-24T07:14:57;94742.84;;;14.29;75.44
25526;BME280;13424;48.424;11.258;2023-04-24T07:17:23;94752.91;;;14.47;75.57
25526;BME280;13424;48.424;11.258;2023-04-24T07:19:49;94755.72;;;14.32;75.75
25526;BME280;13424;48.424;11.258;2023-04-24T07:22:15;94762.38;;;14.05;75.82
25526;BME280;13424;48.424;11.258;2023-04-24T07:24:45;94761.31;;;14.06;77.77
25526;BME280;13424;48.424;11.258;2023-04-24T07:27:11;94760.72;;;14.14;77.11
25526;BME280;13424;48.424;11.258;2023-04-24T07:29:43;94762.47;;;13.95;77.20
25526;BME280;13424;48.424;11.258;2023-04-24T07:32:09;94765.34;;;13.69;77.38
25526;BME280;13424;48.424;11.258;2023-04-24T07:34:35;94770.41;;;13.27;77.75
25526;BME280;13424;48.424;11.258;2023-04-24T07:37:01;94771.00;;;13.13;79.34
25526;BME280;13424;48.424;11.258;2023-04-24T07:39:30;94774.22;;;13.21;78.67
25526;BME280;13424;48.424;11.258;2023-04-24T07:41:57;94780.59;;;13.30;79.57
25526;BME280;13424;48.424;11.258;2023-04-24T07:44:24;94783.75;;;13.37;78.55
25526;BME280;13424;48.424;11.258;2023-04-24T07:46:50;94778.91;;;13.39;77.73
25526;BME280;13424;48.424;11.258;2023-04-24T07:49:16;94786.44;;;13.32;77.34
25526;BME280;13424;48.424;11.258;2023-04-24T07:51:41;94788.09;;;13.28;78.20
25526;BME280;13424;48.424;11.258;2023-04-24T07:54:10;94790.25;;;13.16;79.13
25526;BME280;13424;48.424;11.258;2023-04-24T07:56:36;94801.03;;;13.00;78.92
25526;BME280;13424;48.424;11.258;2023-04-24T07:59:05;94811.59;;;12.56;80.81
25526;BME280;13424;48.424;11.258;2023-04-24T08:01:31;94835.41;;;12.22;83.17
25526;BME280;13424;48.424;11.258;2023-04-24T08:03:56;94837.09;;;11.25;82.09
25526;BME280;13424;48.424;11.258;2023-04-24T08:06:23;94835.03;;;10.79;83.29
25526;BME280;13424;48.424;11.258;2023-04-24T08:08:49;94834.78;;;10.39;84.68
25526;BME280;13424;48.424;11.258;2023-04-24T08:11:15;94837.81;;;10.52;83.77
25526;BME280;13424;48.424;11.258;2023-04-24T08:13:41;94836.22;;;11.04;82.27
25526;BME280;13424;48.424;11.258;2023-04-24T08:16:07;94822.91;;;11.09;81.59
25526;BME280;13424;48.424;11.258;2023-04-24T08:18:32;94829.97;;;11.45;81.47
25526;BME280;13424;48.424;11.258;2023-04-24T08:24:38;94839.16;;;12.41;78.43
25526;BME280;13424;48.424;11.258;2023-04-24T08:27:04;94846.53;;;12.95;77.20
25526;BME280;13424;48.424;11.258;2023-04-24T08:29:30;94847.97;;;13.47;75.10
25526;BME280;13424;48.424;11.258;2023-04-24T08:31:55;94837.31;;;13.37;75.32
25526;BME280;13424;48.424;11.258;2023-04-24T08:34:22;94841.16;;;13.05;75.86
25526;BME280;13424;48.424;11.258;2023-04-24T08:36:47;94838.88;;;13.48;75.84
25526;BME280;13424;48.424;11.258;2023-04-24T08:39:14;94832.47;;;13.88;75.59
25526;BME280;13424;48.424;11.258;2023-04-24T08:41:42;94837.16;;;13.67;76.38
25526;BME280;13424;48.424;11.258;2023-04-24T08:44:12;94829.44;;;14.68;71.74
25526;BME280;13424;48.424;11.258;2023-04-24T08:46:43;94826.00;;;14.63;72.01
25526;BME280;13424;48.424;11.258;2023-04-24T08:49:13;94836.53;;;15.07;70.62
25526;BME280;13424;48.424;11.258;2023-04-24T08:51:39;94838.41;;;15.30;71.28
25526;BME280;13424;48.424;11.258;2023-04-24T08:54:06;94827.97;;;15.05;70.68
25526;BME280;13424;48.424;11.258;2023-04-24T08:56:33;94827.34;;;15.13;71.10
25526;BME280;13424;48.424;11.258;2023-04-24T08:59:00;94822.47;;;14.67;69.78
25526;BME280;13424;48.424;11.258;2023-04-24T09:01:26;94829.84;;;14.80;69.77
25526;BME280;13424;48.424;11.258;2023-04-24T09:03:52;94831.50;;;14.76;70.41
25526;BME280;13424;48.424;11.258;2023-04-24T09:06:18;94835.84;;;14.72;70.28
25526;BME280;13424;48.424;11.258;2023-04-24T09:08:45;94834.78;;;15.21;68.55
25526;BME280;13424;48.424;11.258;2023-04-24T09:11:17;94835.72;;;15.30;68.23
25526;BME280;13424;48.424;11.258;2023-04-24T09:13:43;94844.25;;;15.14;65.82
25526;BME280;13424;48.424;11.258;2023-04-24T09:16:09;94846.25;;;15.51;65.15
25526;BME280;13424;48.424;11.258;2023-04-24T09:18:35;94842.66;;;15.36;66.01
25526;BME280;13424;48.424;11.258;2023-04-24T09:21:05;94847.63;;;15.24;66.71
25526;BME280;13424;48.424;11.258;2023-04-24T09:23:32;94850.59;;;14.99;65.83
25526;BME280;13424;48.424;11.258;2023-04-24T09:26:00;94844.28;;;14.85;67.02
25526;BME280;13424;48.424;11.258;2023-04-24T09:28:39;94838.09;;;14.89;67.26
25526;BME280;13424;48.424;11.258;2023-04-24T09:31:17;94850.50;;;14.85;66.33
25526;BME280;13424;48.424;11.258;2023-04-24T09:34:13;94854.16;;;15.18;65.96
25526;BME280;13424;48.424;11.258;2023-04-24T09:36:42;94848.38;;;15.06;65.60
25526;BME280;13424;48.424;11.258;2023-04-24T09:39:10;94855.03;;;15.08;65.11
25526;BME280;13424;48.424;11.258;2023-04-24T09:41:56;94849.56;;;15.43;66.07
25526;BME280;13424;48.424;11.258;2023-04-24T09:44:27;94850.94;;;15.16;65.81
25526;BME280;13424;48.424;11.258;2023-04-24T09:47:00;94847.84;;;15.28;65.59
25526;BME280;13424;48.424;11.258;2023-04-24T09:49:30;94841.66;;;15.75;63.58
25526;BME280;13424;48.424;11.258;2023-04-24T09:52:10;94837.25;;;14.94;64.65
25526;BME280;13424;48.424;11.258;2023-04-24T09:54:36;94838.25;;;14.98;63.66
25526;BME280;13424;48.424;11.258;2023-04-24T09:57:02;94840.19;;;14.29;65.04
25526;BME280;13424;48.424;11.258;2023-04-24T09:59:29;94841.06;;;14.24;67.08
25526;BME280;13424;48.424;11.258;2023-04-24T10:01:55;94835.72;;;14.19;66.55
25526;BME280;13424;48.424;11.258;2023-04-24T10:04:23;94835.09;;;14.91;66.78
25526;BME280;13424;48.424;11.258;2023-04-24T10:06:52;94834.72;;;15.02;65.08
25526;BME280;13424;48.424;11.258;2023-04-24T10:09:21;94835.72;;;14.83;65.19
25526;BME280;13424;48.424;11.258;2023-04-24T10:11:50;94826.84;;;15.11;64.36
25526;BME280;13424;48.424;11.258;2023-04-24T10:14:18;94829.81;;;15.33;64.67
25526;BME280;13424;48.424;11.258;2023-04-24T10:16:46;94831.66;;;16.32;64.41
25526;BME280;13424;48.424;11.258;2023-04-24T10:19:15;94825.31;;;16.88;61.45
25526;BME280;13424;48.424;11.258;2023-04-24T10:21:44;94827.34;;;16.31;59.96
25526;BME280;13424;48.424;11.258;2023-04-24T10:24:18;94832.63;;;16.55;60.68
25526;BME280;13424;48.424;11.258;2023-04-24T10:26:45;94823.59;;;15.95;61.41
25526;BME280;13424;48.424;11.258;2023-04-24T10:29:13;94821.22;;;15.74;60.89
25526;BME280;13424;48.424;11.258;2023-04-24T10:31:40;94832.22;;;15.11;64.97
25526;BME280;13424;48.424;11.258;2023-04-24T10:34:08;94841.34;;;14.86;65.48
25526;BME280;13424;48.424;11.258;2023-04-24T10:40:42;94890.81;;;11.43;75.94
25526;BME280;13424;48.424;11.258;2023-04-24T10:43:08;94880.50;;;11.72;77.08
25526;BME280;13424;48.424;11.258;2023-04-24T10:45:38;94890.22;;;12.04;77.00
25526;BME280;13424;48.424;11.258;2023-04-24T10:48:07;94881.56;;;11.77;77.09
25526;BME280;13424;48.424;11.258;2023-04-24T10:50:52;94884.06;;;12.60;76.84
25526;BME280;13424;48.424;11.258;2023-04-24T10:53:21;94881.06;;;12.86;75.95
25526;BME280;13424;48.424;11.258;2023-04-24T10:56:06;94872.81;;;13.68;72.51
25526;BME280;13424;48.424;11.258;2023-04-24T11:01:08;94881.22;;;14.30;72.63
25526;BME280;13424;48.424;11.258;2023-04-24T11:03:35;94882.16;;;13.76;71.59
25526;BME280;13424;48.424;11.258;2023-04-24T11:08:36;94881.91;;;14.11;71.24
25526;BME280;13424;48.424;11.258;2023-04-24T11:11:13;94866.50;;;14.27;70.37
25526;BME280;13424;48.424;11.258;2023-04-24T11:16:27;94868.78;;;14.49;69.67
25526;BME280;13424;48.424;11.258;2023-04-24T11:19:17;94865.84;;;14.79;69.00
25526;BME280;13424;48.424;11.258;2023-04-24T11:22:02;94880.78;;;15.15;67.64
25526;BME280;13424;48.424;11.258;2023-04-24T11:32:33;94866.94;;;16.12;64.70
25526;BME280;13424;48.424;11.258;2023-04-24T11:35:17;94867.34;;;16.19;66.57
25526;BME280;13424;48.424;11.258;2023-04-24T11:37:49;94868.66;;;16.03;66.39
25526;BME280;13424;48.424;11.258;2023-04-24T11:40:17;94872.16;;;16.22;64.79
25526;BME280;13424;48.424;11.258;2023-04-24T11:42:47;94880.53;;;16.02;64.87
25526;BME280;13424;48.424;11.258;2023-04-24T11:45:20;94880.75;;;16.57;64.66
25526;BME280;13424;48.424;11.258;2023-04-24T11:47:46;94889.31;;;16.07;66.16
25526;BME280;13424;48.424;11.258;2023-04-24T11:50:17;94879.72;;;15.82;64.98
25526;BME280;13424;48.424;11.258;2023-04-24T11:52:49;94879.38;;;16.08;63.84
25526;BME280;13424;48.424;11.258;2023-04-24T11:57:48;94879.81;;;17.13;62.89
25526;BME280;13424;48.424;11.258;2023-04-24T12:00:29;94881.75;;;17.40;63.01
25526;BME280;13424;48.424;11.258;2023-04-24T12:03:11;94875.84;;;17.51;62.55
25526;BME280;13424;48.424;11.258;2023-04-24T12:05:39;94885.81;;;16.44;62.66
25526;BME280;13424;48.424;11.258;2023-04-24T12:08:05;94869.22;;;15.62;63.19
25526;BME280;13424;48.424;11.258;2023-04-24T12:10:32;94874.59;;;15.62;59.86
25526;BME280;13424;48.424;11.258;2023-04-24T12:12:58;94879.63;;;14.97;60.00
25526;BME280;13424;48.424;11.258;2023-04-24T12:15:25;94872.56;;;14.48;59.56
25526;BME280;13424;48.424;11.258;2023-04-24T12:17:53;94880.44;;;15.21;61.37
25526;BME280;13424;48.424;11.258;2023-04-24T12:20:31;94876.19;;;15.15;62.68
25526;BME280;13424;48.424;11.258;2023-04-24T12:23:00;94877.19;;;15.72;61.39
25526;BME280;13424;48.424;11.258;2023-04-24T12:25:31;94882.81;;;15.47;60.32
25526;BME280;13424;48.424;11.258;2023-04-24T12:30:30;94879.47;;;15.36;59.22
25526;BME280;13424;48.424;11.258;2023-04-24T12:33:00;94893.84;;;14.68;59.09
25526;BME280;13424;48.424;11.258;2023-04-24T12:35:29;94897.19;;;14.84;61.17
25526;BME280;13424;48.424;11.258;2023-04-24T12:37:55;94900.97;;;14.05;58.16
25526;BME280;13424;48.424;11.258;2023-04-24T12:40:27;94897.31;;;14.30;58.18
25526;BME280;13424;48.424;11.258;2023-04-24T12:42:54;94900.75;;;14.40;56.92
25526;BME280;13424;48.424;11.258;2023-04-24T12:45:20;94902.59;;;15.56;59.88
25526;BME280;13424;48.424;11.258;2023-04-24T12:47:48;94905.66;;;15.73;56.12
25526;BME280;13424;48.424;11.258;2023-04-24T12:50:15;94906.16;;;16.51;58.48
25526;BME280;13424;48.424;11.258;2023-04-24T12:52:42;94892.72;;;16.69;58.06
25526;BME280;13424;48.424;11.258;2023-04-24T12:55:08;94898.81;;;16.75;55.63
25526;BME280;13424;48.424;11.258;2023-04-24T12:57:36;94894.16;;;16.94;56.90
25526;BME280;13424;48.424;11.258;2023-04-24T13:00:03;94895.28;;;17.21;56.87
25526;BME280;13424;48.424;11.258;2023-04-24T13:02:30;94899.72;;;16.52;54.77
25526;BME280;13424;48.424;11.258;2023-04-24T13:05:00;94892.50;;;17.12;55.57
25526;BME280;13424;48.424;11.258;2023-04-24T13:07:27;94903.09;;;16.57;54.40
25526;BME280;13424;48.424;11.258;2023-04-24T13:09:54;94893.25;;;16.85;55.17
25526;BME280;13424;48.424;11.258;2023-04-24T13:12:21;94896.97;;;17.03;56.06
25526;BME280;13424;48.424;11.258;2023-04-24T13:14:46;94890.88;;;16.65;55.83
25526;BME280;13424;48.424;11.258;2023-04-24T13:17:12;94898.78;;;16.05;56.90
25526;BME280;13424;48.424;11.258;2023-04-24T13:19:41;94907.06;;;15.89;57.22
25526;BME280;13424;48.424;11.258;2023-04-24T13:22:10;94915.13;;;16.46;56.93
25526;BME280;13424;48.424;11.258;2023-04-24T13:24:36;94917.91;;;16.22;56.51
25526;BME280;13424;48.424;11.258;2023-04-24T13:27:03;94920.78;;;16.63;54.68
25526;BME280;13424;48.424;11.258;2023-04-24T13:29:29;94917.81;;;15.89;54.44
25526;BME280;13424;48.424;11.258;2023-04-24T13:36:01;94925.03;;;15.70;55.36
25526;BME280;13424;48.424;11.258;2023-04-24T13:38:27;94926.13;;;16.12;55.54
25526;BME280;13424;48.424;11.258;2023-04-24T13:40:53;94918.97;;;16.40;52.41
25526;BME280;13424;48.424;11.258;2023-04-24T13:43:19;94925.75;;;16.75;54.58
25526;BME280;13424;48.424;11.258;2023-04-24T13:45:45;94915.50;;;17.51;54.58
25526;BME280;13424;48.424;11.258;2023-04-24T13:48:10;94921.31;;;16.09;53.16